createdAt,value
2022-11-16T00:04:20.241Z,161.80
2022-11-16T00:14:29.492Z,162.60
2022-11-16T00:24:36.768Z,213.50
2022-11-16T00:34:44.093Z,176.90
2022-11-16T00:44:49.962Z,157.50
2022-11-16T00:54:57.306Z,157.60
2022-11-16T01:05:04.767Z,137.70
2022-11-16T01:15:13.195Z,139.70
2022-11-16T01:25:20.885Z,144.00
2022-11-16T01:35:28.424Z,145.20
2022-11-16T01:45:37.084Z,151.00
2022-11-16T01:55:46.514Z,143.90
2022-11-16T02:06:03.535Z,138.30
2022-11-16T02:16:10.470Z,144.30
2022-11-16T02:26:23.366Z,137.70
2022-11-16T02:36:31.034Z,138.00
2022-11-16T02:46:35.976Z,133.00
2022-11-16T02:56:44.531Z,116.50
2022-11-16T03:06:55.153Z,108.40
2022-11-16T03:17:04.803Z,100.00
2022-11-16T03:37:23.326Z,94.20
2022-11-16T03:47:31.274Z,101.90
2022-11-16T03:57:38.502Z,108.30
2022-11-16T04:08:04.131Z,95.00
2022-11-16T04:18:27.683Z,75.40
2022-11-16T04:28:37.571Z,80.20
2022-11-16T04:38:45.079Z,69.90
2022-11-16T04:48:52.548Z,68.20
2022-11-16T04:58:59.717Z,65.80
2022-11-16T05:09:06.673Z,76.10
2022-11-16T05:19:32.001Z,67.30
2022-11-16T05:29:39.337Z,66.20
2022-11-16T05:39:46.670Z,61.10
2022-11-16T05:49:54.039Z,69.80
2022-11-16T06:00:01.138Z,58.70
2022-11-16T06:10:09.373Z,67.60
2022-11-16T06:20:16.702Z,52.20
2022-11-16T06:30:23.989Z,55.00
2022-11-16T06:40:31.120Z,46.80
2022-11-16T06:50:38.201Z,39.70
2022-11-16T07:00:45.567Z,26.80
2022-11-16T07:10:52.601Z,19.80
2022-11-16T07:20:59.758Z,23.50
2022-11-16T07:31:07.071Z,17.80
2022-11-16T07:41:16.828Z,14.40
2022-11-16T07:51:24.353Z,16.40
2022-11-16T08:01:31.456Z,18.70
2022-11-16T08:11:37.962Z,15.00
2022-11-16T08:21:45.086Z,15.80
2022-11-16T08:31:52.375Z,16.40
2022-11-16T08:41:59.855Z,19.60
2022-11-16T08:52:06.255Z,11.00
2022-11-16T09:02:12.416Z,15.20
2022-11-16T09:12:20.166Z,12.20
2022-11-16T09:22:27.604Z,14.10
2022-11-16T09:32:34.706Z,9.90
2022-11-16T09:42:42.423Z,15.90
2022-11-16T09:52:52.837Z,20.00
2022-11-16T10:02:59.709Z,17.40
2022-11-16T10:13:05.287Z,23.10
2022-11-16T10:23:17.772Z,25.70
2022-11-16T10:33:28.081Z,18.00
2022-11-16T10:43:34.902Z,21.70
2022-11-16T10:53:44.555Z,17.60
2022-11-16T11:03:52.216Z,14.30
2022-11-16T11:14:04.195Z,14.70
2022-11-16T11:24:43.258Z,13.70
2022-11-16T11:34:47.412Z,12.80
2022-11-16T11:44:57.430Z,13.40
2022-11-16T11:55:04.223Z,8.90
2022-11-16T12:05:24.695Z,18.60
2022-11-16T12:15:59.809Z,11.10
2022-11-16T12:26:09.147Z,7.50
2022-11-16T12:36:16.189Z,10.40
2022-11-16T12:46:25.281Z,8.50
2022-11-16T12:56:32.775Z,5.90
2022-11-16T13:16:45.138Z,6.80
2022-11-16T13:26:55.995Z,7.60
2022-11-16T13:37:03.113Z,5.20
2022-11-16T13:47:24.894Z,11.90
2022-11-16T13:57:35.133Z,8.70
2022-11-16T14:07:39.571Z,9.20
2022-11-16T14:17:51.494Z,7.40
2022-11-16T14:28:03.313Z,27.40
2022-11-16T14:38:23.080Z,11.50
2022-11-16T14:48:31.486Z,6.70
2022-11-16T14:58:39.170Z,4.10
2022-11-16T15:08:46.874Z,4.80
2022-11-16T15:18:59.073Z,6.90
2022-11-16T15:29:06.201Z,8.40
2022-11-16T15:39:11.707Z,7.20
2022-11-16T15:49:20.308Z,7.10
2022-11-16T15:59:26.975Z,8.90
2022-11-16T16:09:36.984Z,9.60
2022-11-16T16:19:46.549Z,8.10
2022-11-16T16:29:54.529Z,4.90
2022-11-16T16:40:01.077Z,3.60
2022-11-16T16:50:05.830Z,7.90
2022-11-16T17:00:15.001Z,9.60
2022-11-16T17:10:19.684Z,9.70
2022-11-16T17:20:26.935Z,10.40
2022-11-16T17:40:38.032Z,12.70
2022-11-16T17:50:48.575Z,8.10
2022-11-16T18:00:56.936Z,4.10
2022-11-16T18:11:05.513Z,8.20
2022-11-16T18:21:20.114Z,8.10
2022-11-16T18:31:29.938Z,7.20
2022-11-16T18:51:42.401Z,9.40
2022-11-16T19:01:49.486Z,4.90
2022-11-16T19:11:56.679Z,3.60
2022-11-16T19:22:04.271Z,4.40
2022-11-16T19:32:11.412Z,3.60
2022-11-16T19:42:17.640Z,5.00
2022-11-16T19:52:24.925Z,3.20
2022-11-16T20:02:32.101Z,4.20
2022-11-16T20:12:39.372Z,6.10
2022-11-16T20:22:48.150Z,9.30
2022-11-16T20:32:57.192Z,7.40
2022-11-16T20:53:09.702Z,5.30
2022-11-16T21:03:17.403Z,5.20
2022-11-16T21:13:42.598Z,7.10
2022-11-16T21:23:51.611Z,6.10
2022-11-16T21:34:00.681Z,10.60
2022-11-16T21:44:06.747Z,6.40
2022-11-16T21:54:14.004Z,6.80
2022-11-16T22:04:38.830Z,8.80
2022-11-16T22:14:45.008Z,6.80
2022-11-16T22:24:53.434Z,4.80
2022-11-16T22:35:00.829Z,5.90
2022-11-16T22:45:07.369Z,4.20
2022-11-16T22:55:14.403Z,6.00
2022-11-16T23:05:22.196Z,6.90
2022-11-16T23:15:47.089Z,7.00
2022-11-16T23:26:11.999Z,6.40
2022-11-16T23:36:19.168Z,12.40
2022-11-16T23:46:26.485Z,7.60
2022-11-16T23:56:33.714Z,6.90
